TNCA/AUA METAR and TAF weather

Enter ICAO airport designator
Station Type Date Time Source
TNCA METAR 2022/01/26 07:00 UTC NOAA

TNCA 260700Z 09011KT 9999 FEW018 26/22 Q1012 NOSIG


Station Type Date Time Source
TNCA Decoded METAR 2022/01/26 07:00 UTC NOAA

Queen Beatrix Airport, Aruba (TNCA) 12-30N 070-01W 33M
Jan 26, 2022 - 02:00 AM EST / 2022.01.26 0700 UTC
Wind: from the E (090 degrees) at 13 MPH (11 KT):0
Visibility: greater than 7 mile(s):0
Sky conditions: mostly clear
Temperature: 78 F (26 C)
Dew Point: 71 F (22 C)
Relative Humidity: 78%
Pressure (altimeter): 29.88 in. Hg (1012 hPa)
ob: TNCA 260700Z 09011KT 9999 FEW018 26/22 Q1012 NOSIG
cycle: 7

Station Type Date Time Source
TNCA TAF 2022/01/26 06:48 UTC NOAA

TAF TAF TNCA 260515Z 2606/2706 08014KT 9999 SCT020 PROB30
TEMPO 2606/2618 8000 SHRA BKN014

Example: see airport list